Forside
METAR-TAF:

METAR-TAF

Lufthavne :

Moree, Australien

Breddekreds: 29-29-56S, længdekreds: 149-50-41E, højde: 214 m

Aktuelle vejr

Denne rapport blev lavet for 15 minutter siden, kl. 08:00 UTC
Vind stille
Temperatur 27°C
Fugtighed 37%
Tryk 1013 hPa
Sigt 10 km eller mere

METAR: YMOR 220800Z AUTO 00000KT 9999 // NCD 27/11 Q1013

Tid: 19:15 (08:15 UTC)


TAF: fraværende

Vejrobservationer og prognoser fra mere end 4000 lufthavne (METAR og TAF).

De gule og røde prikker repræsenterer de meteorologiske stationer.

Flyt musen over at se navnet på stationen.

Så klik over at se vejr observationer og prognoser.

At skifte det kort: Klik på de grønne knapper med et sort kors for at zoome ind; på den grønne knap med en bindestreg for at zoome ud; eller på de grønne pile for tilstødende kort.


METAR-TAF: